sensor_id;sensor_type;location;lat;lon;timestamp;P1;durP1;ratioP1;P2;durP2;ratioP2
30062;SDS011;16889;67.864;24.990;2023-03-01T00:01:38;5.68;;;0.68;;
30062;SDS011;16889;67.864;24.990;2023-03-01T00:06:25;6.38;;;1.40;;
30062;SDS011;16889;67.864;24.990;2023-03-01T00:11:13;5.20;;;0.73;;
30062;SDS011;16889;67.864;24.990;2023-03-01T00:16:19;3.25;;;0.80;;
30062;SDS011;16889;67.864;24.990;2023-03-01T00:21:08;7.25;;;0.70;;
30062;SDS011;16889;67.864;24.990;2023-03-01T00:25:54;7.00;;;1.23;;
30062;SDS011;16889;67.864;24.990;2023-03-01T00:30:40;4.40;;;0.80;;
30062;SDS011;16889;67.864;24.990;2023-03-01T00:35:26;5.13;;;0.90;;
30062;SDS011;16889;67.864;24.990;2023-03-01T00:40:12;4.63;;;0.98;;
30062;SDS011;16889;67.864;24.990;2023-03-01T00:45:01;3.33;;;0.60;;
30062;SDS011;16889;67.864;24.990;2023-03-01T00:49:47;4.65;;;0.90;;
30062;SDS011;16889;67.864;24.990;2023-03-01T00:54:33;5.47;;;0.82;;
30062;SDS011;16889;67.864;24.990;2023-03-01T00:59:19;7.20;;;1.23;;
30062;SDS011;16889;67.864;24.990;2023-03-01T01:04:07;3.40;;;0.65;;
30062;SDS011;16889;67.864;24.990;2023-03-01T01:08:55;5.25;;;0.80;;
30062;SDS011;16889;67.864;24.990;2023-03-01T01:13:43;5.67;;;0.90;;
30062;SDS011;16889;67.864;24.990;2023-03-01T01:18:31;6.22;;;0.70;;
30062;SDS011;16889;67.864;24.990;2023-03-01T01:23:17;4.97;;;0.63;;
30062;SDS011;16889;67.864;24.990;2023-03-01T01:28:03;8.80;;;0.85;;
30062;SDS011;16889;67.864;24.990;2023-03-01T01:32:49;5.65;;;0.70;;
30062;SDS011;16889;67.864;24.990;2023-03-01T01:37:35;5.68;;;0.82;;
30062;SDS011;16889;67.864;24.990;2023-03-01T01:42:24;7.13;;;0.70;;
30062;SDS011;16889;67.864;24.990;2023-03-01T01:47:14;9.13;;;0.73;;
30062;SDS011;16889;67.864;24.990;2023-03-01T01:52:14;7.40;;;0.77;;
30062;SDS011;16889;67.864;24.990;2023-03-01T01:57:10;4.00;;;0.80;;
30062;SDS011;16889;67.864;24.990;2023-03-01T02:02:02;6.40;;;1.05;;
30062;SDS011;16889;67.864;24.990;2023-03-01T02:06:51;6.15;;;0.47;;
30062;SDS011;16889;67.864;24.990;2023-03-01T02:11:45;4.43;;;0.50;;
30062;SDS011;16889;67.864;24.990;2023-03-01T02:16:33;4.57;;;0.60;;
30062;SDS011;16889;67.864;24.990;2023-03-01T02:21:28;7.32;;;0.88;;
30062;SDS011;16889;67.864;24.990;2023-03-01T02:26:25;3.65;;;0.57;;
30062;SDS011;16889;67.864;24.990;2023-03-01T02:31:20;5.68;;;0.80;;
30062;SDS011;16889;67.864;24.990;2023-03-01T02:36:26;3.00;;;0.95;;
30062;SDS011;16889;67.864;24.990;2023-03-01T02:41:16;5.15;;;0.70;;
30062;SDS011;16889;67.864;24.990;2023-03-01T02:46:06;3.15;;;0.52;;
30062;SDS011;16889;67.864;24.990;2023-03-01T02:56:04;2.03;;;0.60;;
30062;SDS011;16889;67.864;24.990;2023-03-01T03:00:58;2.80;;;0.57;;
30062;SDS011;16889;67.864;24.990;2023-03-01T03:05:46;5.20;;;0.60;;
30062;SDS011;16889;67.864;24.990;2023-03-01T03:10:35;2.60;;;0.45;;
30062;SDS011;16889;67.864;24.990;2023-03-01T03:15:23;7.43;;;0.60;;
30062;SDS011;16889;67.864;24.990;2023-03-01T03:20:11;3.17;;;0.60;;
30062;SDS011;16889;67.864;24.990;2023-03-01T03:25:04;6.57;;;0.65;;
30062;SDS011;16889;67.864;24.990;2023-03-01T03:29:50;9.80;;;0.85;;
30062;SDS011;16889;67.864;24.990;2023-03-01T03:34:36;2.28;;;0.60;;
30062;SDS011;16889;67.864;24.990;2023-03-01T03:39:23;3.50;;;0.70;;
30062;SDS011;16889;67.864;24.990;2023-03-01T03:44:09;3.03;;;0.70;;
30062;SDS011;16889;67.864;24.990;2023-03-01T03:48:56;4.28;;;0.60;;
30062;SDS011;16889;67.864;24.990;2023-03-01T03:53:44;6.45;;;0.63;;
30062;SDS011;16889;67.864;24.990;2023-03-01T03:58:30;4.15;;;0.70;;
30062;SDS011;16889;67.864;24.990;2023-03-01T04:03:18;1.42;;;0.50;;
30062;SDS011;16889;67.864;24.990;2023-03-01T04:08:05;5.50;;;0.63;;
30062;SDS011;16889;67.864;24.990;2023-03-01T04:12:54;8.98;;;1.00;;
30062;SDS011;16889;67.864;24.990;2023-03-01T04:17:45;5.00;;;1.15;;
30062;SDS011;16889;67.864;24.990;2023-03-01T04:22:32;4.40;;;0.63;;
30062;SDS011;16889;67.864;24.990;2023-03-01T04:27:18;2.53;;;0.40;;
30062;SDS011;16889;67.864;24.990;2023-03-01T04:32:04;5.85;;;0.50;;
30062;SDS011;16889;67.864;24.990;2023-03-01T04:36:50;4.15;;;0.60;;
30062;SDS011;16889;67.864;24.990;2023-03-01T04:41:36;6.05;;;0.60;;
30062;SDS011;16889;67.864;24.990;2023-03-01T04:46:23;4.73;;;0.90;;
30062;SDS011;16889;67.864;24.990;2023-03-01T04:51:11;8.02;;;0.60;;
30062;SDS011;16889;67.864;24.990;2023-03-01T04:56:00;9.15;;;0.85;;
30062;SDS011;16889;67.864;24.990;2023-03-01T05:00:47;3.25;;;0.57;;
30062;SDS011;16889;67.864;24.990;2023-03-01T05:05:34;3.03;;;0.65;;
30062;SDS011;16889;67.864;24.990;2023-03-01T05:10:21;1.70;;;0.43;;
30062;SDS011;16889;67.864;24.990;2023-03-01T05:15:08;1.47;;;0.40;;
30062;SDS011;16889;67.864;24.990;2023-03-01T05:19:54;2.47;;;0.77;;
30062;SDS011;16889;67.864;24.990;2023-03-01T05:24:40;1.55;;;0.60;;
30062;SDS011;16889;67.864;24.990;2023-03-01T05:29:27;3.13;;;0.50;;
30062;SDS011;16889;67.864;24.990;2023-03-01T05:34:15;1.73;;;0.57;;
30062;SDS011;16889;67.864;24.990;2023-03-01T05:39:01;4.25;;;0.50;;
30062;SDS011;16889;67.864;24.990;2023-03-01T05:43:47;3.72;;;0.60;;
30062;SDS011;16889;67.864;24.990;2023-03-01T05:48:33;1.27;;;0.60;;
30062;SDS011;16889;67.864;24.990;2023-03-01T05:53:19;4.65;;;0.80;;
30062;SDS011;16889;67.864;24.990;2023-03-01T05:58:12;5.82;;;0.60;;
30062;SDS011;16889;67.864;24.990;2023-03-01T06:03:00;1.02;;;0.50;;
30062;SDS011;16889;67.864;24.990;2023-03-01T06:07:46;5.38;;;0.70;;
30062;SDS011;16889;67.864;24.990;2023-03-01T06:12:33;1.17;;;0.50;;
30062;SDS011;16889;67.864;24.990;2023-03-01T06:17:21;7.15;;;0.70;;
30062;SDS011;16889;67.864;24.990;2023-03-01T06:22:07;2.83;;;0.50;;
30062;SDS011;16889;67.864;24.990;2023-03-01T06:26:53;3.05;;;0.63;;
30062;SDS011;16889;67.864;24.990;2023-03-01T06:31:39;4.70;;;0.70;;
30062;SDS011;16889;67.864;24.990;2023-03-01T06:36:25;5.63;;;0.80;;
30062;SDS011;16889;67.864;24.990;2023-03-01T06:41:11;1.45;;;0.57;;
30062;SDS011;16889;67.864;24.990;2023-03-01T06:45:58;3.20;;;0.60;;
30062;SDS011;16889;67.864;24.990;2023-03-01T06:50:44;5.95;;;0.65;;
30062;SDS011;16889;67.864;24.990;2023-03-01T06:55:30;2.70;;;0.60;;
30062;SDS011;16889;67.864;24.990;2023-03-01T07:00:18;5.47;;;0.60;;
30062;SDS011;16889;67.864;24.990;2023-03-01T07:05:05;1.52;;;0.57;;
30062;SDS011;16889;67.864;24.990;2023-03-01T07:09:51;5.63;;;1.23;;
30062;SDS011;16889;67.864;24.990;2023-03-01T07:14:38;4.57;;;0.60;;
30062;SDS011;16889;67.864;24.990;2023-03-01T07:19:25;2.60;;;0.50;;
30062;SDS011;16889;67.864;24.990;2023-03-01T07:24:11;3.03;;;0.60;;
30062;SDS011;16889;67.864;24.990;2023-03-01T07:29:00;5.22;;;0.98;;
30062;SDS011;16889;67.864;24.990;2023-03-01T07:33:49;6.47;;;0.98;;
30062;SDS011;16889;67.864;24.990;2023-03-01T07:38:35;4.90;;;0.70;;
30062;SDS011;16889;67.864;24.990;2023-03-01T07:43:22;8.10;;;1.00;;
30062;SDS011;16889;67.864;24.990;2023-03-01T07:48:08;4.82;;;0.70;;
30062;SDS011;16889;67.864;24.990;2023-03-01T07:52:55;6.25;;;0.98;;
30062;SDS011;16889;67.864;24.990;2023-03-01T07:57:41;6.53;;;1.02;;
30062;SDS011;16889;67.864;24.990;2023-03-01T08:02:27;3.38;;;0.60;;
30062;SDS011;16889;67.864;24.990;2023-03-01T08:07:14;9.35;;;0.90;;
30062;SDS011;16889;67.864;24.990;2023-03-01T08:11:59;4.75;;;0.82;;
30062;SDS011;16889;67.864;24.990;2023-03-01T08:16:48;7.38;;;0.90;;
30062;SDS011;16889;67.864;24.990;2023-03-01T08:21:35;6.90;;;1.00;;
30062;SDS011;16889;67.864;24.990;2023-03-01T08:26:21;6.60;;;0.60;;
30062;SDS011;16889;67.864;24.990;2023-03-01T08:31:14;1.25;;;0.50;;
30062;SDS011;16889;67.864;24.990;2023-03-01T08:36:11;7.28;;;0.70;;
30062;SDS011;16889;67.864;24.990;2023-03-01T08:40:58;2.13;;;0.45;;
30062;SDS011;16889;67.864;24.990;2023-03-01T08:45:48;2.15;;;0.63;;
30062;SDS011;16889;67.864;24.990;2023-03-01T08:50:34;1.98;;;0.63;;
30062;SDS011;16889;67.864;24.990;2023-03-01T08:55:20;1.40;;;0.50;;
30062;SDS011;16889;67.864;24.990;2023-03-01T09:00:06;4.03;;;0.60;;
30062;SDS011;16889;67.864;24.990;2023-03-01T09:09:39;1.38;;;0.60;;
30062;SDS011;16889;67.864;24.990;2023-03-01T09:14:25;3.95;;;0.50;;
30062;SDS011;16889;67.864;24.990;2023-03-01T09:19:11;3.72;;;0.60;;
30062;SDS011;16889;67.864;24.990;2023-03-01T09:23:57;2.75;;;0.50;;
30062;SDS011;16889;67.864;24.990;2023-03-01T09:28:43;4.38;;;0.80;;
30062;SDS011;16889;67.864;24.990;2023-03-01T09:33:31;4.60;;;0.60;;
30062;SDS011;16889;67.864;24.990;2023-03-01T09:38:18;6.45;;;0.70;;
30062;SDS011;16889;67.864;24.990;2023-03-01T09:43:24;2.08;;;0.50;;
30062;SDS011;16889;67.864;24.990;2023-03-01T09:48:17;5.03;;;0.70;;
30062;SDS011;16889;67.864;24.990;2023-03-01T09:53:11;2.00;;;0.50;;
30062;SDS011;16889;67.864;24.990;2023-03-01T09:58:05;4.47;;;0.57;;
30062;SDS011;16889;67.864;24.990;2023-03-01T10:03:16;4.88;;;0.70;;
30062;SDS011;16889;67.864;24.990;2023-03-01T10:18:39;6.45;;;1.00;;
30062;SDS011;16889;67.864;24.990;2023-03-01T10:23:27;5.80;;;0.70;;
30062;SDS011;16889;67.864;24.990;2023-03-01T10:28:18;6.55;;;0.90;;
30062;SDS011;16889;67.864;24.990;2023-03-01T10:33:19;8.82;;;0.85;;
30062;SDS011;16889;67.864;24.990;2023-03-01T10:38:13;5.35;;;0.80;;
30062;SDS011;16889;67.864;24.990;2023-03-01T10:43:03;7.03;;;1.02;;
30062;SDS011;16889;67.864;24.990;2023-03-01T10:52:59;10.70;;;0.90;;
30062;SDS011;16889;67.864;24.990;2023-03-01T10:57:48;6.00;;;1.10;;
30062;SDS011;16889;67.864;24.990;2023-03-01T11:02:34;10.18;;;1.10;;
30062;SDS011;16889;67.864;24.990;2023-03-01T11:07:24;7.05;;;0.98;;
30062;SDS011;16889;67.864;24.990;2023-03-01T11:12:13;8.32;;;1.17;;
30062;SDS011;16889;67.864;24.990;2023-03-01T11:17:02;5.03;;;0.80;;
30062;SDS011;16889;67.864;24.990;2023-03-01T11:27:08;12.13;;;1.05;;
30062;SDS011;16889;67.864;24.990;2023-03-01T11:32:04;4.22;;;0.70;;
30062;SDS011;16889;67.864;24.990;2023-03-01T11:36:56;11.55;;;0.88;;
30062;SDS011;16889;67.864;24.990;2023-03-01T11:41:48;3.10;;;0.70;;
30062;SDS011;16889;67.864;24.990;2023-03-01T11:46:47;4.22;;;0.93;;
30062;SDS011;16889;67.864;24.990;2023-03-01T11:56:34;5.07;;;0.80;;
30062;SDS011;16889;67.864;24.990;2023-03-01T12:01:30;2.22;;;0.60;;
30062;SDS011;16889;67.864;24.990;2023-03-01T12:17:00;6.05;;;0.95;;
30062;SDS011;16889;67.864;24.990;2023-03-01T12:32:20;3.67;;;0.68;;
30062;SDS011;16889;67.864;24.990;2023-03-01T12:52:35;6.50;;;0.98;;
30062;SDS011;16889;67.864;24.990;2023-03-01T12:57:42;2.47;;;0.60;;
30062;SDS011;16889;67.864;24.990;2023-03-01T13:02:48;4.32;;;0.80;;
30062;SDS011;16889;67.864;24.990;2023-03-01T13:07:44;7.85;;;1.02;;
30062;SDS011;16889;67.864;24.990;2023-03-01T13:12:43;9.07;;;0.80;;
30062;SDS011;16889;67.864;24.990;2023-03-01T13:17:41;11.43;;;1.05;;
30062;SDS011;16889;67.864;24.990;2023-03-01T13:22:31;7.40;;;0.93;;
30062;SDS011;16889;67.864;24.990;2023-03-01T13:27:22;4.70;;;0.70;;
30062;SDS011;16889;67.864;24.990;2023-03-01T13:32:21;3.42;;;0.90;;
30062;SDS011;16889;67.864;24.990;2023-03-01T13:37:10;3.78;;;0.52;;
30062;SDS011;16889;67.864;24.990;2023-03-01T13:42:26;6.18;;;0.65;;
30062;SDS011;16889;67.864;24.990;2023-03-01T13:47:16;3.75;;;0.80;;
30062;SDS011;16889;67.864;24.990;2023-03-01T13:56:50;3.90;;;0.75;;
30062;SDS011;16889;67.864;24.990;2023-03-01T14:01:37;0.73;;;0.38;;
30062;SDS011;16889;67.864;24.990;2023-03-01T14:06:27;1.83;;;0.52;;
30062;SDS011;16889;67.864;24.990;2023-03-01T14:16:28;1.65;;;0.35;;
30062;SDS011;16889;67.864;24.990;2023-03-01T14:21:35;1.05;;;0.50;;
30062;SDS011;16889;67.864;24.990;2023-03-01T14:26:21;0.93;;;0.35;;
30062;SDS011;16889;67.864;24.990;2023-03-01T15:20:47;1.40;;;0.43;;
30062;SDS011;16889;67.864;24.990;2023-03-01T15:25:34;3.33;;;0.43;;
30062;SDS011;16889;67.864;24.990;2023-03-01T15:30:29;1.23;;;0.40;;
30062;SDS011;16889;67.864;24.990;2023-03-01T15:35:41;3.13;;;0.60;;
30062;SDS011;16889;67.864;24.990;2023-03-01T15:40:30;1.48;;;0.50;;
30062;SDS011;16889;67.864;24.990;2023-03-01T15:50:02;1.83;;;0.60;;
30062;SDS011;16889;67.864;24.990;2023-03-01T15:54:48;0.57;;;0.50;;
30062;SDS011;16889;67.864;24.990;2023-03-01T15:59:34;1.50;;;0.50;;
30062;SDS011;16889;67.864;24.990;2023-03-01T16:04:21;2.95;;;0.55;;
30062;SDS011;16889;67.864;24.990;2023-03-01T16:09:08;0.80;;;0.50;;
30062;SDS011;16889;67.864;24.990;2023-03-01T16:13:56;2.75;;;0.60;;
30062;SDS011;16889;67.864;24.990;2023-03-01T16:18:43;1.85;;;0.55;;
30062;SDS011;16889;67.864;24.990;2023-03-01T16:23:30;2.88;;;0.60;;
30062;SDS011;16889;67.864;24.990;2023-03-01T16:28:19;2.83;;;0.50;;
30062;SDS011;16889;67.864;24.990;2023-03-01T16:33:05;0.77;;;0.60;;
30062;SDS011;16889;67.864;24.990;2023-03-01T16:37:52;1.80;;;0.55;;
30062;SDS011;16889;67.864;24.990;2023-03-01T16:42:39;0.80;;;0.40;;
30062;SDS011;16889;67.864;24.990;2023-03-01T16:47:24;2.03;;;0.40;;
30062;SDS011;16889;67.864;24.990;2023-03-01T16:52:10;1.23;;;0.50;;
30062;SDS011;16889;67.864;24.990;2023-03-01T16:56:56;0.90;;;0.47;;
30062;SDS011;16889;67.864;24.990;2023-03-01T17:01:43;3.47;;;0.63;;
30062;SDS011;16889;67.864;24.990;2023-03-01T17:06:29;1.52;;;0.50;;
30062;SDS011;16889;67.864;24.990;2023-03-01T17:16:07;2.28;;;0.60;;
30062;SDS011;16889;67.864;24.990;2023-03-01T17:21:00;2.22;;;0.60;;
30062;SDS011;16889;67.864;24.990;2023-03-01T17:25:46;9.27;;;6.57;;
30062;SDS011;16889;67.864;24.990;2023-03-01T17:30:33;1.00;;;0.70;;
30062;SDS011;16889;67.864;24.990;2023-03-01T17:35:19;7.97;;;4.32;;
30062;SDS011;16889;67.864;24.990;2023-03-01T17:40:05;5.28;;;3.63;;
30062;SDS011;16889;67.864;24.990;2023-03-01T17:44:51;3.67;;;2.53;;
30062;SDS011;16889;67.864;24.990;2023-03-01T17:49:37;1.60;;;0.70;;
30062;SDS011;16889;67.864;24.990;2023-03-01T17:54:23;2.78;;;1.90;;
30062;SDS011;16889;67.864;24.990;2023-03-01T17:59:09;2.33;;;1.80;;
30062;SDS011;16889;67.864;24.990;2023-03-01T18:03:55;5.60;;;0.90;;
30062;SDS011;16889;67.864;24.990;2023-03-01T18:08:41;1.80;;;0.75;;
30062;SDS011;16889;67.864;24.990;2023-03-01T18:18:14;1.63;;;0.60;;
30062;SDS011;16889;67.864;24.990;2023-03-01T18:23:00;3.05;;;0.77;;
30062;SDS011;16889;67.864;24.990;2023-03-01T18:27:46;2.45;;;0.95;;
30062;SDS011;16889;67.864;24.990;2023-03-01T18:32:32;2.90;;;0.80;;
30062;SDS011;16889;67.864;24.990;2023-03-01T18:37:19;4.72;;;0.80;;
30062;SDS011;16889;67.864;24.990;2023-03-01T18:42:05;3.28;;;0.52;;
30062;SDS011;16889;67.864;24.990;2023-03-01T18:46:51;3.65;;;0.60;;
30062;SDS011;16889;67.864;24.990;2023-03-01T18:51:37;4.13;;;0.70;;
30062;SDS011;16889;67.864;24.990;2023-03-01T18:56:24;5.55;;;0.80;;
30062;SDS011;16889;67.864;24.990;2023-03-01T19:01:16;1.03;;;0.70;;
30062;SDS011;16889;67.864;24.990;2023-03-01T19:06:04;4.40;;;0.60;;
30062;SDS011;16889;67.864;24.990;2023-03-01T19:11:03;1.48;;;0.52;;
30062;SDS011;16889;67.864;24.990;2023-03-01T19:15:50;2.22;;;0.52;;
30062;SDS011;16889;67.864;24.990;2023-03-01T19:20:35;3.28;;;0.60;;
30062;SDS011;16889;67.864;24.990;2023-03-01T19:25:21;3.75;;;0.57;;
30062;SDS011;16889;67.864;24.990;2023-03-01T19:30:07;1.58;;;0.52;;
30062;SDS011;16889;67.864;24.990;2023-03-01T19:34:54;1.35;;;0.50;;
30062;SDS011;16889;67.864;24.990;2023-03-01T19:39:40;1.80;;;0.68;;
30062;SDS011;16889;67.864;24.990;2023-03-01T19:44:27;2.60;;;0.57;;
30062;SDS011;16889;67.864;24.990;2023-03-01T19:49:13;1.13;;;0.50;;
30062;SDS011;16889;67.864;24.990;2023-03-01T19:53:59;2.13;;;0.55;;
30062;SDS011;16889;67.864;24.990;2023-03-01T19:58:45;3.08;;;0.63;;
30062;SDS011;16889;67.864;24.990;2023-03-01T20:03:35;1.45;;;0.38;;
30062;SDS011;16889;67.864;24.990;2023-03-01T20:08:21;3.25;;;0.60;;
30062;SDS011;16889;67.864;24.990;2023-03-01T20:13:07;2.13;;;0.52;;
30062;SDS011;16889;67.864;24.990;2023-03-01T20:17:53;1.73;;;0.70;;
30062;SDS011;16889;67.864;24.990;2023-03-01T20:22:39;4.00;;;0.60;;
30062;SDS011;16889;67.864;24.990;2023-03-01T20:27:25;2.40;;;0.57;;
30062;SDS011;16889;67.864;24.990;2023-03-01T20:32:11;3.33;;;0.73;;
30062;SDS011;16889;67.864;24.990;2023-03-01T20:36:58;5.82;;;0.93;;
30062;SDS011;16889;67.864;24.990;2023-03-01T20:41:44;10.45;;;1.20;;
30062;SDS011;16889;67.864;24.990;2023-03-01T20:46:30;8.85;;;1.30;;
30062;SDS011;16889;67.864;24.990;2023-03-01T20:51:16;12.60;;;2.00;;
30062;SDS011;16889;67.864;24.990;2023-03-01T20:56:03;13.10;;;1.83;;
30062;SDS011;16889;67.864;24.990;2023-03-01T21:00:50;15.95;;;1.90;;
30062;SDS011;16889;67.864;24.990;2023-03-01T21:05:36;13.88;;;2.05;;
30062;SDS011;16889;67.864;24.990;2023-03-01T21:10:22;15.73;;;2.17;;
30062;SDS011;16889;67.864;24.990;2023-03-01T21:15:08;18.55;;;2.47;;
30062;SDS011;16889;67.864;24.990;2023-03-01T21:19:55;18.45;;;2.50;;
30062;SDS011;16889;67.864;24.990;2023-03-01T21:24:41;17.05;;;2.67;;
30062;SDS011;16889;67.864;24.990;2023-03-01T21:29:27;15.68;;;2.15;;
30062;SDS011;16889;67.864;24.990;2023-03-01T21:34:13;16.95;;;2.42;;
30062;SDS011;16889;67.864;24.990;2023-03-01T21:38:59;19.90;;;2.20;;
30062;SDS011;16889;67.864;24.990;2023-03-01T21:43:50;16.17;;;2.40;;
30062;SDS011;16889;67.864;24.990;2023-03-01T21:48:37;14.02;;;2.05;;
30062;SDS011;16889;67.864;24.990;2023-03-01T21:53:24;18.23;;;2.27;;
30062;SDS011;16889;67.864;24.990;2023-03-01T21:58:11;22.17;;;2.63;;
30062;SDS011;16889;67.864;24.990;2023-03-01T22:02:57;15.82;;;2.25;;
30062;SDS011;16889;67.864;24.990;2023-03-01T22:07:59;19.80;;;2.15;;
30062;SDS011;16889;67.864;24.990;2023-03-01T22:12:45;20.90;;;2.53;;
30062;SDS011;16889;67.864;24.990;2023-03-01T22:17:31;22.83;;;2.20;;
30062;SDS011;16889;67.864;24.990;2023-03-01T22:22:17;13.80;;;1.90;;
30062;SDS011;16889;67.864;24.990;2023-03-01T22:27:03;14.38;;;2.20;;
30062;SDS011;16889;67.864;24.990;2023-03-01T22:31:49;18.33;;;2.55;;
30062;SDS011;16889;67.864;24.990;2023-03-01T22:36:36;22.98;;;2.53;;
30062;SDS011;16889;67.864;24.990;2023-03-01T22:41:29;13.32;;;2.05;;
30062;SDS011;16889;67.864;24.990;2023-03-01T22:46:17;11.20;;;1.55;;
30062;SDS011;16889;67.864;24.990;2023-03-01T22:51:04;10.70;;;2.40;;
30062;SDS011;16889;67.864;24.990;2023-03-01T22:55:50;13.02;;;1.95;;
30062;SDS011;16889;67.864;24.990;2023-03-01T23:00:36;17.35;;;1.90;;
30062;SDS011;16889;67.864;24.990;2023-03-01T23:05:22;13.48;;;1.85;;
30062;SDS011;16889;67.864;24.990;2023-03-01T23:10:08;17.83;;;2.00;;
30062;SDS011;16889;67.864;24.990;2023-03-01T23:19:42;26.45;;;3.13;;
30062;SDS011;16889;67.864;24.990;2023-03-01T23:24:27;13.13;;;1.92;;
30062;SDS011;16889;67.864;24.990;2023-03-01T23:29:17;17.52;;;2.28;;
30062;SDS011;16889;67.864;24.990;2023-03-01T23:34:04;15.02;;;2.03;;
30062;SDS011;16889;67.864;24.990;2023-03-01T23:38:51;11.57;;;1.95;;
30062;SDS011;16889;67.864;24.990;2023-03-01T23:43:43;10.23;;;1.45;;
30062;SDS011;16889;67.864;24.990;2023-03-01T23:53:17;11.35;;;1.83;;
30062;SDS011;16889;67.864;24.990;2023-03-01T23:58:05;15.20;;;1.52;;
